Time;durP1;ratioP1;P1;durP2;ratioP2;P2;SDS_P1;SDS_P2;PMS_P1;PMS_P2;Temp;Humidity;BMP_temperature;BMP_pressure;BME280_temperature;BME280_humidity;BME280_pressure;Samples;Min_cycle;Max_cycle;Signal;HPM_P1;HPM_P2
2021/04/06 00:02:14;;;;;;;2.80;0.95;;;22.40;25.70;;;;;;5040014;28;20037;-56
2021/04/06 00:04:43;;;;;;;2.15;0.93;;;22.40;25.70;;;;;;5044570;28;20383;-52
2021/04/06 00:07:16;;;;;;;1.60;0.80;;;22.40;25.70;;;;;;5040010;28;20121;-56
2021/04/06 00:09:47;;;;;;;1.10;0.55;;;22.40;25.70;;;;;;5041894;28;20029;-52
2021/04/06 00:12:15;;;;;;;1.33;0.85;;;22.40;25.70;;;;;;5039412;28;20022;-50
2021/04/06 00:14:43;;;;;;;2.47;0.80;;;22.30;25.70;;;;;;5022549;28;20031;-56
2021/04/06 00:17:11;;;;;;;1.73;0.70;;;22.40;25.80;;;;;;5040410;28;20034;-54
2021/04/06 00:19:42;;;;;;;3.25;0.90;;;22.30;25.80;;;;;;5044393;28;20044;-54
2021/04/06 00:22:12;;;;;;;2.38;0.70;;;22.40;25.80;;;;;;5022578;28;20029;-56
2021/04/06 00:24:42;;;;;;;1.88;0.80;;;22.30;25.80;;;;;;5042521;28;20444;-56
2021/04/06 00:27:20;;;;;;;1.35;0.70;;;22.30;25.80;;;;;;5024039;28;20030;-54
2021/04/06 00:29:52;;;;;;;1.38;0.55;;;22.30;26.30;;;;;;5043255;28;20032;-53
2021/04/06 00:32:20;;;;;;;1.45;0.73;;;22.30;25.90;;;;;;5039378;28;20025;-52
2021/04/06 00:34:46;;;;;;;2.30;0.90;;;22.30;25.90;;;;;;5037537;28;20429;-53
2021/04/06 00:37:16;;;;;;;2.40;1.00;;;22.30;25.90;;;;;;5043631;28;20116;-52
2021/04/06 00:39:42;;;;;;;2.75;1.00;;;22.30;25.90;;;;;;5047005;28;20515;-51
2021/04/06 00:42:13;;;;;;;2.28;0.85;;;22.30;26.00;;;;;;5042997;28;20091;-54
2021/04/06 00:44:47;;;;;;;2.20;0.88;;;22.30;26.00;;;;;;5039509;28;20041;-56
2021/04/06 00:47:15;;;;;;;2.10;0.93;;;22.30;26.00;;;;;;5039209;28;20044;-56
2021/04/06 00:49:43;;;;;;;2.15;1.00;;;22.20;26.00;;;;;;5044812;28;20051;-54
2021/04/06 00:52:13;;;;;;;2.25;1.10;;;22.20;26.00;;;;;;5044578;28;20033;-54
2021/04/06 00:54:40;;;;;;;1.55;0.70;;;22.20;26.00;;;;;;5038184;28;20038;-56
2021/04/06 00:57:09;;;;;;;1.90;1.00;;;22.20;26.00;;;;;;5039346;28;20037;-52
2021/04/06 00:59:35;;;;;;;2.58;0.95;;;22.20;26.10;;;;;;5041353;28;20022;-57
2021/04/06 01:02:08;;;;;;;2.80;0.90;;;22.20;26.10;;;;;;5040420;28;20090;-58
2021/04/06 01:04:38;;;;;;;1.70;0.70;;;22.20;26.10;;;;;;5045899;28;20037;-53
2021/04/06 01:07:10;;;;;;;2.28;0.80;;;22.20;26.10;;;;;;5039822;28;20033;-58
2021/04/06 01:09:46;;;;;;;2.50;0.95;;;22.20;26.20;;;;;;5044081;28;20040;-54
2021/04/06 01:12:14;;;;;;;2.25;0.70;;;22.20;26.20;;;;;;5041932;28;20111;-55
2021/04/06 01:14:45;;;;;;;2.22;0.90;;;22.20;26.20;;;;;;5041505;28;20043;-58
2021/04/06 01:17:16;;;;;;;4.43;1.02;;;22.10;26.20;;;;;;5018096;28;20103;-58
2021/04/06 01:19:42;;;;;;;1.85;0.95;;;22.20;26.20;;;;;;5039465;28;20033;-60
2021/04/06 01:22:14;;;;;;;2.65;0.95;;;22.10;26.20;;;;;;5041997;28;20056;-56
2021/04/06 01:24:41;;;;;;;2.15;1.05;;;22.10;26.20;;;;;;5043874;28;20060;-55
2021/04/06 01:27:09;;;;;;;2.38;1.00;;;22.20;26.20;;;;;;5045135;28;20128;-53
2021/04/06 01:29:36;;;;;;;1.77;0.82;;;22.10;26.20;;;;;;5042503;28;20029;-54
2021/04/06 01:32:03;;;;;;;2.22;0.98;;;22.10;26.20;;;;;;5046804;28;20049;-56
2021/04/06 01:34:30;;;;;;;1.67;1.00;;;22.10;26.20;;;;;;5045222;28;20428;-58
2021/04/06 01:36:57;;;;;;;2.88;1.45;;;22.10;26.20;;;;;;5045080;28;20467;-54
2021/04/06 01:39:28;;;;;;;2.10;0.82;;;22.10;26.20;;;;;;5045256;28;20032;-55
2021/04/06 01:42:00;;;;;;;2.55;1.08;;;22.10;26.30;;;;;;5048740;28;20025;-56
2021/04/06 01:44:26;;;;;;;2.13;1.00;;;22.10;26.30;;;;;;5044428;28;20045;-52
2021/04/06 01:46:53;;;;;;;1.88;0.70;;;22.10;26.30;;;;;;5044357;28;20021;-56
2021/04/06 01:49:20;;;;;;;1.48;0.77;;;22.10;26.30;;;;;;5045186;28;20356;-57
2021/04/06 01:51:46;;;;;;;2.53;1.15;;;22.10;26.30;;;;;;5031341;28;20036;-54
2021/04/06 01:54:13;;;;;;;2.45;1.10;;;22.10;26.30;;;;;;5024732;28;20091;-55
2021/04/06 01:56:53;;;;;;;2.15;1.00;;;22.00;26.20;;;;;;5045517;28;20099;-57
2021/04/06 01:59:30;;;;;;;2.20;0.90;;;22.10;26.30;;;;;;5023791;28;20036;-56
2021/04/06 02:01:59;;;;;;;1.60;0.73;;;22.10;26.30;;;;;;5045671;28;20032;-58
2021/04/06 02:04:27;;;;;;;2.28;0.82;;;22.00;26.20;;;;;;5042627;28;20091;-58
2021/04/06 02:06:58;;;;;;;2.58;1.00;;;22.00;26.20;;;;;;5040487;28;20057;-56
2021/04/06 02:09:25;;;;;;;3.03;1.00;;;22.00;26.20;;;;;;5045533;28;20037;-54
2021/04/06 02:11:52;;;;;;;2.00;0.80;;;22.00;26.20;;;;;;5031344;28;20056;-55
2021/04/06 02:14:23;;;;;;;2.53;0.90;;;22.00;26.20;;;;;;5029272;28;20459;-56
2021/04/06 02:17:01;;;;;;;2.17;1.00;;;22.00;26.20;;;;;;5043637;28;20082;-57
2021/04/06 02:19:34;;;;;;;1.85;0.73;;;22.00;26.20;;;;;;5047414;28;20353;-55
2021/04/06 02:22:08;;;;;;;1.95;1.00;;;22.00;26.20;;;;;;5044084;28;20464;-55
2021/04/06 02:24:46;;;;;;;2.78;0.90;;;22.00;26.20;;;;;;5045924;28;20033;-55
2021/04/06 02:27:29;;;;;;;3.15;1.20;;;22.00;26.20;;;;;;5042409;28;20090;-55
2021/04/06 02:29:57;;;;;;;2.80;1.00;;;22.00;26.20;;;;;;5044084;28;20057;-50
2021/04/06 02:32:28;;;;;;;2.50;0.90;;;22.00;26.20;;;;;;5044361;28;20095;-54
2021/04/06 02:34:57;;;;;;;2.60;1.05;;;22.00;26.20;;;;;;5040774;28;20044;-56
2021/04/06 02:37:29;;;;;;;2.75;0.88;;;22.00;26.20;;;;;;5021372;28;20069;-57
2021/04/06 02:39:58;;;;;;;2.75;1.00;;;22.00;26.20;;;;;;5046965;28;21241;-58
2021/04/06 02:42:35;;;;;;;2.67;0.90;;;22.00;26.20;;;;;;5043150;28;20033;-57
2021/04/06 02:45:20;;;;;;;2.90;1.30;;;22.00;26.20;;;;;;5042861;28;20064;-56
2021/04/06 02:47:52;;;;;;;2.97;1.10;;;22.00;26.20;;;;;;5041650;28;20033;-58
2021/04/06 02:50:25;;;;;;;1.90;0.88;;;21.90;26.10;;;;;;5042164;28;20047;-56
2021/04/06 02:52:52;;;;;;;2.60;1.10;;;21.90;26.20;;;;;;5044450;28;20093;-58
2021/04/06 02:55:21;;;;;;;2.83;1.15;;;21.90;26.10;;;;;;5044602;28;20035;-56
2021/04/06 02:57:52;;;;;;;3.33;1.10;;;21.90;26.60;;;;;;5039964;28;20355;-56
2021/04/06 03:00:26;;;;;;;2.70;1.13;;;21.90;26.20;;;;;;5042357;28;20028;-58
2021/04/06 03:03:18;;;;;;;3.03;1.00;;;21.90;26.10;;;;;;5044648;28;20115;-60
2021/04/06 03:05:44;;;;;;;2.70;1.00;;;21.90;26.10;;;;;;5046284;28;20082;-56
2021/04/06 03:08:10;;;;;;;2.35;0.82;;;21.90;26.10;;;;;;5023841;28;20124;-58
2021/04/06 03:10:36;;;;;;;3.08;0.82;;;21.80;26.00;;;;;;5042226;28;20123;-54
2021/04/06 03:13:13;;;;;;;2.38;1.08;;;21.90;26.00;;;;;;5029778;28;20048;-57
2021/04/06 03:15:41;;;;;;;1.95;0.73;;;21.90;26.00;;;;;;5025750;28;20041;-59
2021/04/06 03:18:07;;;;;;;1.85;0.88;;;21.90;26.00;;;;;;5024015;28;20467;-56
2021/04/06 03:20:36;;;;;;;1.83;0.68;;;21.90;26.00;;;;;;5040477;28;20108;-55
2021/04/06 03:23:04;;;;;;;2.25;0.90;;;21.90;26.00;;;;;;5043441;28;20033;-57
2021/04/06 03:25:36;;;;;;;1.92;0.70;;;21.90;26.00;;;;;;5041431;28;20068;-58
2021/04/06 03:28:20;;;;;;;2.00;0.70;;;21.90;26.00;;;;;;5043816;28;20349;-58
2021/04/06 03:30:46;;;;;;;1.85;0.70;;;21.80;26.00;;;;;;5043135;28;20026;-57
2021/04/06 03:33:13;;;;;;;1.10;0.50;;;21.80;26.00;;;;;;5044758;28;20028;-55
2021/04/06 03:35:40;;;;;;;2.03;0.70;;;21.80;26.00;;;;;;5042904;28;20594;-55
2021/04/06 03:38:09;;;;;;;1.77;0.80;;;21.80;26.00;;;;;;5043445;28;20040;-55
2021/04/06 03:40:39;;;;;;;1.63;0.50;;;21.80;26.00;;;;;;5042648;28;20044;-54
2021/04/06 03:43:19;;;;;;;1.67;0.60;;;21.80;26.00;;;;;;5044392;28;20464;-55
2021/04/06 03:45:59;;;;;;;1.92;0.73;;;21.80;26.00;;;;;;5041427;28;20040;-54
2021/04/06 03:48:26;;;;;;;1.35;0.70;;;21.80;25.90;;;;;;5038982;28;20067;-58
2021/04/06 03:50:55;;;;;;;3.25;0.80;;;21.80;26.00;;;;;;5021104;28;20080;-54
2021/04/06 03:53:23;;;;;;;2.20;0.80;;;21.80;25.90;;;;;;5043417;28;20029;-59
2021/04/06 03:56:10;;;;;;;1.27;0.60;;;21.80;25.90;;;;;;5027071;28;20029;-53
2021/04/06 03:58:43;;;;;;;1.20;0.60;;;21.80;26.00;;;;;;5041014;28;20036;-55
2021/04/06 04:01:10;;;;;;;1.85;0.70;;;21.80;25.90;;;;;;5041504;28;20041;-57
2021/04/06 04:03:36;;;;;;;1.67;0.70;;;21.70;25.90;;;;;;5040623;28;20491;-50
2021/04/06 04:06:02;;;;;;;1.38;0.60;;;21.80;25.90;;;;;;5045141;28;20080;-55
2021/04/06 04:08:27;;;;;;;1.35;0.63;;;21.70;25.90;;;;;;5046008;28;20028;-54
2021/04/06 04:10:53;;;;;;;1.42;0.60;;;21.70;25.90;;;;;;5042227;28;20029;-54
2021/04/06 04:13:19;;;;;;;1.25;0.55;;;21.70;25.90;;;;;;5024034;28;20036;-50
2021/04/06 04:15:45;;;;;;;2.10;0.52;;;21.70;25.90;;;;;;5043433;28;20107;-57
2021/04/06 04:18:11;;;;;;;2.00;0.70;;;21.70;25.90;;;;;;5024006;28;20048;-57
2021/04/06 04:20:37;;;;;;;1.08;0.50;;;21.70;25.90;;;;;;5038598;28;20041;-52
2021/04/06 04:23:03;;;;;;;1.48;0.52;;;21.70;25.90;;;;;;5016482;28;20106;-53
2021/04/06 04:25:29;;;;;;;1.27;0.55;;;21.70;26.00;;;;;;5044862;28;20152;-56
2021/04/06 04:27:54;;;;;;;1.88;0.80;;;21.70;25.90;;;;;;5040276;28;20041;-56
2021/04/06 04:30:41;;;;;;;1.42;0.50;;;21.70;26.00;;;;;;5042620;28;20366;-57
2021/04/06 04:33:09;;;;;;;1.92;0.73;;;21.70;26.00;;;;;;5042617;28;20098;-55
2021/04/06 04:35:36;;;;;;;2.40;0.82;;;21.70;26.00;;;;;;5040339;28;20025;-51
2021/04/06 04:38:04;;;;;;;1.95;0.68;;;21.70;26.00;;;;;;5025707;28;20025;-54
2021/04/06 04:40:30;;;;;;;1.25;0.57;;;21.70;26.00;;;;;;5040277;28;20356;-54
2021/04/06 04:42:56;;;;;;;2.03;0.50;;;21.60;26.00;;;;;;5043165;28;20051;-54
2021/04/06 04:45:23;;;;;;;2.85;1.20;;;21.60;26.00;;;;;;5042903;28;20486;-54
2021/04/06 04:47:49;;;;;;;2.33;0.90;;;21.60;26.00;;;;;;5037846;28;20071;-51
2021/04/06 04:50:16;;;;;;;1.40;0.52;;;21.60;26.00;;;;;;5046078;28;20445;-52
2021/04/06 04:52:45;;;;;;;1.60;0.50;;;21.60;26.50;;;;;;5039843;28;20037;-54
2021/04/06 04:55:15;;;;;;;0.98;0.40;;;21.70;26.00;;;;;;5020041;28;20357;-55
2021/04/06 04:57:41;;;;;;;1.48;0.43;;;21.60;26.00;;;;;;5044497;28;20459;-55
2021/04/06 05:00:09;;;;;;;1.27;0.57;;;21.60;26.00;;;;;;5040515;28;20057;-55
2021/04/06 05:02:35;;;;;;;0.90;0.50;;;21.60;26.00;;;;;;5042207;28;20366;-55
2021/04/06 05:05:01;;;;;;;1.73;0.57;;;21.60;26.00;;;;;;5037909;28;20136;-55
2021/04/06 05:07:26;;;;;;;1.38;0.50;;;21.60;26.00;;;;;;5026990;28;20057;-52
2021/04/06 05:09:52;;;;;;;2.35;0.70;;;21.60;26.00;;;;;;5043891;28;20043;-55
2021/04/06 05:12:18;;;;;;;1.88;0.57;;;21.60;26.00;;;;;;5037637;28;20037;-49
2021/04/06 05:14:46;;;;;;;1.17;0.47;;;21.60;26.00;;;;;;5042631;28;20059;-56
2021/04/06 05:17:12;;;;;;;2.10;0.68;;;21.60;26.00;;;;;;5041339;28;20030;-53
2021/04/06 05:19:38;;;;;;;1.10;0.60;;;21.60;26.00;;;;;;5042615;28;20586;-55
2021/04/06 05:22:04;;;;;;;1.35;0.50;;;21.60;26.00;;;;;;5042304;28;20063;-54
2021/04/06 05:24:30;;;;;;;1.70;0.63;;;21.60;26.00;;;;;;5041489;28;20056;-56
2021/04/06 05:26:56;;;;;;;2.33;0.60;;;21.60;26.00;;;;;;5041303;28;20452;-56
2021/04/06 05:29:21;;;;;;;2.53;0.75;;;21.60;26.00;;;;;;5038206;28;20088;-57
2021/04/06 05:31:47;;;;;;;0.82;0.43;;;21.60;26.00;;;;;;5042611;28;20679;-57
2021/04/06 05:34:13;;;;;;;1.08;0.55;;;21.50;26.00;;;;;;5036106;28;20044;-59
2021/04/06 05:36:39;;;;;;;1.25;0.60;;;21.50;26.00;;;;;;5042912;28;20478;-57
2021/04/06 05:39:05;;;;;;;1.65;0.63;;;21.50;26.00;;;;;;5042018;28;20448;-55
2021/04/06 05:41:30;;;;;;;1.50;0.50;;;21.50;26.00;;;;;;5043038;28;20029;-58
2021/04/06 05:44:00;;;;;;;1.80;0.65;;;21.60;26.00;;;;;;5038844;28;20146;-51
2021/04/06 05:46:30;;;;;;;1.33;0.45;;;21.50;26.00;;;;;;5039994;28;20353;-53
2021/04/06 05:49:00;;;;;;;1.58;0.43;;;21.60;26.00;;;;;;5040130;28;20021;-56
2021/04/06 05:51:27;;;;;;;1.85;0.80;;;21.50;26.00;;;;;;5022956;28;20032;-55
2021/04/06 05:53:54;;;;;;;1.55;0.52;;;21.50;26.00;;;;;;5037968;28;20025;-53
2021/04/06 05:56:19;;;;;;;1.42;0.50;;;21.50;26.00;;;;;;5023194;28;20400;-55
2021/04/06 05:58:45;;;;;;;1.83;0.70;;;21.50;26.00;;;;;;5023144;28;20029;-56
2021/04/06 06:01:11;;;;;;;1.88;0.52;;;21.50;26.00;;;;;;5041410;28;20021;-55
2021/04/06 06:03:37;;;;;;;2.25;0.63;;;21.50;26.50;;;;;;5040256;28;20025;-53
2021/04/06 06:06:03;;;;;;;1.88;0.60;;;21.50;26.00;;;;;;5038420;28;20045;-59
2021/04/06 06:08:30;;;;;;;2.10;0.70;;;21.50;26.00;;;;;;5039470;28;20029;-53
2021/04/06 06:11:05;;;;;;;1.15;0.45;;;21.50;26.00;;;;;;5047915;28;20388;-57
2021/04/06 06:13:35;;;;;;;2.25;0.52;;;21.50;26.00;;;;;;5043485;28;20037;-56
2021/04/06 06:16:09;;;;;;;1.30;0.40;;;21.50;26.00;;;;;;5046111;28;20033;-60
2021/04/06 06:18:54;;;;;;;;;;;21.50;26.00;;;;;;5046362;28;20429;-53
2021/04/06 06:21:23;;;;;;;0.98;0.40;;;21.50;26.00;;;;;;5043096;28;19990;-57
2021/04/06 06:23:49;;;;;;;1.73;0.65;;;21.40;26.00;;;;;;5043209;28;20043;-58
2021/04/06 06:26:18;;;;;;;1.23;0.52;;;21.40;26.00;;;;;;5042675;28;20448;-53
2021/04/06 06:29:14;;;;;;;0.90;0.40;;;21.40;26.00;;;;;;5029503;28;20055;-55
2021/04/06 06:31:54;;;;;;;2.65;0.70;;;21.50;26.10;;;;;;5030352;28;20036;-55
2021/04/06 06:34:31;;;;;;;2.17;0.60;;;21.40;26.10;;;;;;5047266;28;20385;-56
2021/04/06 06:37:04;;;;;;;1.27;0.60;;;21.50;26.10;;;;;;5044094;28;20388;-53
2021/04/06 06:39:30;;;;;;;1.75;0.80;;;21.50;26.10;;;;;;5041646;28;20951;-57
2021/04/06 06:41:58;;;;;;;1.33;0.60;;;21.40;26.00;;;;;;5042466;28;20029;-58
2021/04/06 06:44:24;;;;;;;1.58;0.65;;;21.40;26.00;;;;;;5043192;28;20037;-56
2021/04/06 06:47:02;;;;;;;2.90;0.80;;;21.40;26.10;;;;;;5044231;28;20021;-54
2021/04/06 06:49:34;;;;;;;1.35;0.85;;;21.50;26.20;;;;;;5043248;28;20021;-57
2021/04/06 06:52:00;;;;;;;2.75;0.88;;;21.50;26.20;;;;;;5041451;28;20037;-56
2021/04/06 06:54:39;;;;;;;2.00;0.95;;;21.50;26.30;;;;;;5042072;28;20048;-58
2021/04/06 06:57:07;;;;;;;2.05;0.93;;;21.50;26.30;;;;;;5043317;28;20108;-54
2021/04/06 06:59:43;;;;;;;2.90;1.00;;;21.50;26.30;;;;;;5042822;28;20017;-58
2021/04/06 07:02:25;;;;;;;3.17;1.20;;;21.70;26.40;;;;;;5041257;28;20037;-58
2021/04/06 07:05:11;;;;;;;2.83;0.85;;;21.80;26.30;;;;;;5042524;28;20048;-55
2021/04/06 07:07:57;;;;;;;1.73;0.73;;;21.90;26.30;;;;;;5043436;28;20037;-58
2021/04/06 07:10:32;;;;;;;2.28;0.90;;;22.00;26.20;;;;;;5043480;28;20322;-57
2021/04/06 07:13:01;;;;;;;1.83;0.82;;;22.20;26.20;;;;;;5042031;28;20035;-51
2021/04/06 07:15:29;;;;;;;2.35;1.00;;;22.30;26.10;;;;;;5040020;28;20044;-57
2021/04/06 07:18:02;;;;;;;3.10;1.02;;;22.40;26.00;;;;;;5045508;28;20111;-58
2021/04/06 07:20:30;;;;;;;2.28;0.85;;;22.50;26.00;;;;;;5044361;28;20032;-52
2021/04/06 07:23:01;;;;;;;1.50;0.70;;;22.60;25.90;;;;;;5042835;28;21121;-58
2021/04/06 07:25:28;;;;;;;2.28;0.90;;;22.70;25.90;;;;;;5042669;28;20120;-58
2021/04/06 07:27:54;;;;;;;3.05;0.98;;;22.90;25.90;;;;;;5043276;28;20021;-56
2021/04/06 07:30:20;;;;;;;1.80;0.80;;;22.90;25.70;;;;;;5022258;28;20499;-57
2021/04/06 07:32:46;;;;;;;2.40;0.65;;;23.00;25.70;;;;;;5028068;28;20423;-58
2021/04/06 07:35:12;;;;;;;1.95;0.95;;;23.10;25.60;;;;;;5027450;28;20103;-59
2021/04/06 07:37:40;;;;;;;1.42;0.75;;;23.20;25.60;;;;;;5041836;28;20518;-53
2021/04/06 07:40:10;;;;;;;1.80;0.80;;;23.30;25.60;;;;;;5046036;28;20029;-57
2021/04/06 07:42:46;;;;;;;1.95;0.80;;;23.30;25.50;;;;;;5038417;28;20136;-52
2021/04/06 07:45:23;;;;;;;2.42;0.85;;;23.40;25.60;;;;;;5044940;28;20132;-54
2021/04/06 07:47:51;;;;;;;2.53;0.90;;;23.50;25.60;;;;;;5042856;28;20029;-54
2021/04/06 07:50:37;;;;;;;2.92;0.80;;;23.50;25.50;;;;;;5036545;28;20416;-54
2021/04/06 07:53:26;;;;;;;3.13;0.95;;;23.60;25.40;;;;;;5025259;28;20017;-54
2021/04/06 07:55:56;;;;;;;2.20;0.90;;;23.70;25.30;;;;;;5040259;28;20037;-54
2021/04/06 07:58:48;;;;;;;3.15;0.80;;;23.80;25.30;;;;;;5040543;28;20033;-52
2021/04/06 08:01:17;;;;;;;1.48;0.60;;;23.90;25.20;;;;;;5040694;28;20021;-53
2021/04/06 08:04:03;;;;;;;1.95;0.77;;;23.90;25.10;;;;;;5044028;28;20131;-52
2021/04/06 08:06:47;;;;;;;2.22;0.80;;;24.00;25.00;;;;;;5035015;28;20056;-55
2021/04/06 08:09:35;;;;;;;6.63;1.00;;;24.10;25.00;;;;;;5035106;28;20302;-53
2021/04/06 08:12:20;;;;;;;1.13;0.57;;;24.10;24.90;;;;;;5035032;28;20048;-50
2021/04/06 08:14:48;;;;;;;1.88;0.70;;;24.20;24.90;;;;;;5034681;28;20421;-54
2021/04/06 08:17:34;;;;;;;1.88;0.77;;;24.20;24.90;;;;;;5034880;28;20029;-55
2021/04/06 08:20:20;;;;;;;1.42;0.70;;;24.30;24.80;;;;;;5027631;28;20475;-53
2021/04/06 08:22:55;;;;;;;0.90;0.50;;;24.40;24.70;;;;;;5034432;28;20049;-50
2021/04/06 08:25:21;;;;;;;1.85;0.80;;;24.40;24.70;;;;;;5042633;28;20099;-54
2021/04/06 08:28:33;;;;;;;2.00;0.70;;;24.40;24.60;;;;;;5054673;28;20399;-50
2021/04/06 08:31:19;;;;;;;2.05;0.88;;;24.40;24.40;;;;;;5008851;28;20052;-55
2021/04/06 08:33:45;;;;;;;1.55;0.40;;;24.50;24.40;;;;;;5054698;28;20108;-51
2021/04/06 08:36:19;;;;;;;1.75;0.60;;;24.50;24.40;;;;;;5055062;28;20029;-52
2021/04/06 08:38:46;;;;;;;0.63;0.30;;;24.50;24.40;;;;;;5054876;28;20041;-54
2021/04/06 08:41:30;;;;;;;2.00;0.63;;;24.50;24.30;;;;;;5044425;28;20033;-53
2021/04/06 08:43:58;;;;;;;0.88;0.50;;;24.50;24.30;;;;;;5050559;28;20457;-53
2021/04/06 08:46:39;;;;;;;1.00;0.50;;;24.50;24.30;;;;;;5054460;28;20043;-50
2021/04/06 08:49:23;;;;;;;0.73;0.40;;;24.50;24.20;;;;;;5036856;28;20037;-54
2021/04/06 08:52:01;;;;;;;1.15;0.50;;;24.40;24.20;;;;;;5054633;28;20029;-51
2021/04/06 08:54:31;;;;;;;0.70;0.35;;;24.40;24.20;;;;;;5054105;28;20071;-51
2021/04/06 08:57:09;;;;;;;0.65;0.38;;;24.40;24.20;;;;;;5054620;28;20057;-52
2021/04/06 08:59:39;;;;;;;1.17;0.40;;;24.40;24.20;;;;;;5036611;28;20033;-52
2021/04/06 09:02:16;;;;;;;0.70;0.32;;;24.30;24.10;;;;;;5036328;28;20043;-54
2021/04/06 09:04:44;;;;;;;1.30;0.57;;;24.30;24.10;;;;;;5054190;28;20033;-50
2021/04/06 09:07:25;;;;;;;1.10;0.50;;;24.30;24.10;;;;;;5054268;28;20029;-54
2021/04/06 09:09:58;;;;;;;1.58;0.45;;;24.20;24.10;;;;;;5046655;28;20428;-51
2021/04/06 09:12:24;;;;;;;0.80;0.30;;;24.20;24.10;;;;;;5016294;28;20096;-54
2021/04/06 09:14:51;;;;;;;0.77;0.47;;;24.20;24.10;;;;;;5016656;28;20057;-53
2021/04/06 09:17:17;;;;;;;0.68;0.40;;;24.20;24.10;;;;;;5034161;28;20099;-57
2021/04/06 09:19:43;;;;;;;1.55;0.30;;;24.20;24.00;;;;;;5034356;28;20396;-54
2021/04/06 09:22:15;;;;;;;1.63;0.50;;;24.20;24.00;;;;;;5034299;28;20141;-55
2021/04/06 09:24:42;;;;;;;0.75;0.50;;;24.20;24.00;;;;;;5041886;28;20429;-51
2021/04/06 09:27:08;;;;;;;0.38;0.30;;;24.20;24.00;;;;;;5050463;28;20119;-56
2021/04/06 09:29:39;;;;;;;1.20;0.50;;;24.20;24.10;;;;;;5033838;28;20025;-54
2021/04/06 09:32:20;;;;;;;0.68;0.30;;;24.20;24.00;;;;;;5020426;28;20035;-49
2021/04/06 09:34:49;;;;;;;0.77;0.35;;;24.20;24.00;;;;;;5043591;28;20026;-53
2021/04/06 09:37:16;;;;;;;2.03;0.60;;;24.20;24.00;;;;;;5019247;28;20393;-56
2021/04/06 09:39:46;;;;;;;1.65;0.55;;;24.20;24.10;;;;;;5047872;28;20025;-55
2021/04/06 09:42:12;;;;;;;0.75;0.30;;;24.20;24.00;;;;;;5040361;28;20036;-52
2021/04/06 09:44:40;;;;;;;1.05;0.40;;;24.20;24.10;;;;;;5041165;28;20360;-56
2021/04/06 09:47:11;;;;;;;0.55;0.30;;;24.20;24.10;;;;;;5051742;28;20344;-54
2021/04/06 09:49:54;;;;;;;0.85;0.40;;;24.20;24.10;;;;;;5050389;28;20033;-55
2021/04/06 09:52:25;;;;;;;1.80;0.45;;;24.20;24.10;;;;;;5029692;28;20469;-50
2021/04/06 09:54:55;;;;;;;0.50;0.30;;;24.10;24.10;;;;;;5040241;28;20044;-54
2021/04/06 09:57:25;;;;;;;1.25;0.70;;;24.10;24.20;;;;;;5025357;28;20037;-50
2021/04/06 09:59:55;;;;;;;0.82;0.32;;;24.10;24.20;;;;;;5038172;28;20039;-52
2021/04/06 10:02:23;;;;;;;1.83;0.45;;;24.10;24.30;;;;;;5027071;28;20025;-56
2021/04/06 10:04:51;;;;;;;1.35;0.50;;;24.10;24.30;;;;;;5041434;28;20436;-54
2021/04/06 10:07:23;;;;;;;1.70;0.50;;;24.10;24.30;;;;;;5048002;28;20104;-49
2021/04/06 10:09:51;;;;;;;1.20;0.40;;;24.10;24.40;;;;;;5045060;28;20085;-51
2021/04/06 10:12:22;;;;;;;0.85;0.35;;;24.10;24.40;;;;;;5047750;28;20392;-50
2021/04/06 10:14:49;;;;;;;1.15;0.45;;;24.10;24.40;;;;;;5040619;28;20083;-52
2021/04/06 10:17:22;;;;;;;1.17;0.40;;;24.00;24.30;;;;;;5047345;28;20624;-53
2021/04/06 10:20:07;;;;;;;1.38;0.30;;;24.00;24.30;;;;;;5044815;28;20037;-54
2021/04/06 10:22:39;;;;;;;0.93;0.40;;;24.10;24.40;;;;;;5049820;28;20029;-48
2021/04/06 10:25:06;;;;;;;0.68;0.35;;;24.10;24.50;;;;;;5025414;28;20044;-54
2021/04/06 10:27:45;;;;;;;0.55;0.30;;;24.00;24.50;;;;;;5028712;28;20436;-51
2021/04/06 10:30:17;;;;;;;1.10;0.55;;;24.10;24.50;;;;;;5037997;28;20248;-48
2021/04/06 10:32:47;;;;;;;1.83;0.40;;;24.00;24.50;;;;;;5026517;28;20052;-53
2021/04/06 10:35:21;;;;;;;0.77;0.30;;;24.10;24.50;;;;;;5053046;28;20100;-53
2021/04/06 10:37:49;;;;;;;1.00;0.32;;;24.00;24.50;;;;;;5024856;28;20029;-55
2021/04/06 10:40:36;;;;;;;1.85;0.63;;;24.00;24.50;;;;;;5043098;28;20040;-52
2021/04/06 10:43:18;;;;;;;0.85;0.45;;;24.10;24.50;;;;;;5048435;28;20021;-53
2021/04/06 10:45:48;;;;;;;0.60;0.30;;;24.00;24.40;;;;;;5041585;28;20107;-52
2021/04/06 10:48:22;;;;;;;1.13;0.43;;;24.00;24.40;;;;;;5027441;28;20041;-52
2021/04/06 10:50:49;;;;;;;;;;;24.00;24.30;;;;;;5026481;28;20049;-47
2021/04/06 10:53:17;;;;;;;0.95;0.32;;;24.00;24.40;;;;;;5042642;28;19909;-53
2021/04/06 10:55:43;;;;;;;1.10;0.43;;;24.00;24.30;;;;;;5043643;28;20472;-50
2021/04/06 10:58:09;;;;;;;1.10;0.30;;;23.90;24.30;;;;;;5039425;28;20029;-50
2021/04/06 11:00:37;;;;;;;0.77;0.40;;;23.90;24.40;;;;;;5042452;28;20095;-54
2021/04/06 11:03:19;;;;;;;1.98;0.43;;;23.90;24.50;;;;;;5044400;28;20083;-56
2021/04/06 11:05:46;;;;;;;1.55;0.40;;;24.00;24.60;;;;;;5044911;28;20038;-54
2021/04/06 11:08:23;;;;;;;1.15;0.45;;;24.00;24.60;;;;;;5033073;28;20037;-55
2021/04/06 11:10:52;;;;;;;1.23;0.30;;;24.00;24.70;;;;;;5045093;28;20154;-56
2021/04/06 11:13:18;;;;;;;0.90;0.40;;;24.00;24.60;;;;;;5024419;28;20098;-52
2021/04/06 11:15:44;;;;;;;1.17;0.40;;;24.00;24.60;;;;;;5042160;28;20025;-56
2021/04/06 11:18:16;;;;;;;1.63;0.43;;;24.10;24.70;;;;;;5049483;28;20033;-48
2021/04/06 11:20:42;;;;;;;1.33;0.40;;;24.10;24.70;;;;;;5044703;28;20036;-56
2021/04/06 11:23:08;;;;;;;3.13;0.55;;;24.10;24.70;;;;;;5025202;28;20191;-50
2021/04/06 11:25:34;;;;;;;1.60;0.63;;;24.10;24.70;;;;;;5043587;28;20091;-51
2021/04/06 11:28:00;;;;;;;1.30;0.35;;;24.10;24.60;;;;;;5040500;28;20071;-54
2021/04/06 11:30:35;;;;;;;0.77;0.40;;;24.10;24.60;;;;;;5043328;28;20056;-55
2021/04/06 11:33:04;;;;;;;1.48;0.47;;;24.10;24.60;;;;;;5042593;28;20033;-55
2021/04/06 11:35:30;;;;;;;0.85;0.38;;;24.10;24.60;;;;;;5044409;28;20056;-53
2021/04/06 11:37:57;;;;;;;1.48;0.60;;;24.10;24.70;;;;;;5025486;28;20041;-51
2021/04/06 11:40:34;;;;;;;1.38;0.40;;;24.10;24.70;;;;;;5045402;28;20460;-53
2021/04/06 11:43:00;;;;;;;1.52;0.47;;;24.10;24.80;;;;;;5045883;28;20033;-58
2021/04/06 11:45:26;;;;;;;2.97;0.70;;;24.10;24.80;;;;;;5041224;28;20156;-52
2021/04/06 11:47:53;;;;;;;2.38;0.52;;;24.10;24.90;;;;;;5043625;28;20045;-53
2021/04/06 11:50:20;;;;;;;0.82;0.43;;;24.10;24.90;;;;;;5028084;28;20032;-55
2021/04/06 11:52:47;;;;;;;2.28;0.80;;;24.10;25.00;;;;;;5026036;28;20048;-53
2021/04/06 11:55:14;;;;;;;2.05;0.50;;;24.10;25.50;;;;;;5024075;28;20038;-53
2021/04/06 11:57:40;;;;;;;1.40;0.50;;;24.10;25.00;;;;;;5039848;28;20033;-53
2021/04/06 12:00:07;;;;;;;0.70;0.40;;;24.10;24.90;;;;;;5045435;28;20067;-53
2021/04/06 12:02:33;;;;;;;2.67;0.43;;;24.10;24.90;;;;;;5036882;28;20029;-54
2021/04/06 12:04:59;;;;;;;1.95;0.50;;;24.10;24.90;;;;;;5044027;28;20060;-54
2021/04/06 12:07:25;;;;;;;0.80;0.38;;;24.10;24.80;;;;;;5041743;28;20041;-53
2021/04/06 12:09:51;;;;;;;0.80;0.30;;;24.10;24.80;;;;;;5041690;28;20060;-54
2021/04/06 12:12:17;;;;;;;0.63;0.30;;;24.10;24.80;;;;;;5039842;28;20036;-55
2021/04/06 12:14:45;;;;;;;1.27;0.30;;;24.10;24.70;;;;;;5046774;28;20029;-49
2021/04/06 12:17:12;;;;;;;0.52;0.30;;;24.10;24.70;;;;;;5036984;28;20025;-54
2021/04/06 12:19:38;;;;;;;1.33;0.20;;;24.10;24.70;;;;;;5039961;28;20037;-50
2021/04/06 12:22:03;;;;;;;0.90;0.20;;;24.10;24.70;;;;;;5043938;28;20056;-52
2021/04/06 12:24:29;;;;;;;0.93;0.40;;;24.10;24.70;;;;;;5044241;28;20029;-47
2021/04/06 12:26:55;;;;;;;0.73;0.30;;;24.10;25.10;;;;;;5041594;28;20045;-50
2021/04/06 12:29:21;;;;;;;0.93;0.40;;;24.10;24.60;;;;;;5024258;28;20035;-55
2021/04/06 12:31:47;;;;;;;1.50;0.50;;;24.10;24.60;;;;;;5050997;28;20017;-52
2021/04/06 12:34:13;;;;;;;1.00;0.50;;;24.10;24.60;;;;;;5048031;28;20090;-53
2021/04/06 12:36:39;;;;;;;0.85;0.35;;;24.10;24.60;;;;;;5039286;28;20357;-52
2021/04/06 12:39:05;;;;;;;1.05;0.30;;;24.10;24.60;;;;;;5028089;28;20033;-55
2021/04/06 12:41:31;;;;;;;0.50;0.30;;;24.10;24.60;;;;;;5040109;28;20095;-49
2021/04/06 12:43:57;;;;;;;1.33;0.30;;;24.10;24.60;;;;;;5038916;28;20037;-53
2021/04/06 12:46:22;;;;;;;1.15;0.40;;;24.10;24.70;;;;;;5026876;28;20311;-57
2021/04/06 12:48:49;;;;;;;1.00;0.30;;;24.10;24.60;;;;;;5042566;28;20041;-53
2021/04/06 12:51:15;;;;;;;1.05;0.40;;;24.10;24.70;;;;;;5045070;28;21440;-60
2021/04/06 12:53:40;;;;;;;1.40;0.35;;;24.00;24.70;;;;;;5041919;28;20029;-53
2021/04/06 12:56:06;;;;;;;1.88;0.35;;;24.00;24.80;;;;;;5042033;28;20028;-49
2021/04/06 12:58:32;;;;;;;0.95;0.30;;;24.00;25.10;;;;;;5040907;28;20025;-50
2021/04/06 13:00:58;;;;;;;0.68;0.38;;;24.00;24.70;;;;;;5037609;28;20022;-51
2021/04/06 13:03:24;;;;;;;1.35;0.30;;;24.00;24.80;;;;;;5038355;28;20461;-54
2021/04/06 13:05:50;;;;;;;0.50;0.25;;;24.00;24.80;;;;;;5042225;28;20092;-52